Russelville, Illinois
Current Conditions -  °F | °C
As of 5:53 AM on Thursday 29 Jan 2015 (Local Time) from KLWV Reporting Station
Clear Clear  
Wind Chill: 37°   Ceiling: Unl
Heat Index: 43°   Visibility: 10mi
Dew Point: 36°   Wind: 10mph
Humidity: 76%   Direction: 180°S
Pressure: 29.8"   Gusts: NA
Location:  38.7501°N, 87.6141°W
Report Text: KLWV 291153Z AUTO 18009KT 10SM CLR 06/02 A2980 RMK AO2 SLP094 60003 70003 T00610022 10061 20039 56017 $
Loading
Personal Weather Stations






























Interactive Weather Map New forecast layout! Learn more

10-Day Weather Forecast

Advertisements
Track Severe Weather on mobile